Time;durP1;ratioP1;P1;durP2;ratioP2;P2;SDS_P1;SDS_P2;PMS_P1;PMS_P2;Temp;Humidity;BMP_temperature;BMP_pressure;BME280_temperature;BME280_humidity;BME280_pressure;Samples;Min_cycle;Max_cycle;Signal;HPM_P1;HPM_P2
2023/02/23 00:02:05;;;;;;;0.60;0.60;;;7.50;72.30;;;7.42;60.40;94640.00;5007290;28;20204;-18
2023/02/23 00:04:34;;;;;;;0.70;0.70;;;7.50;72.50;;;7.39;60.20;94633.34;5057887;28;20176;-19
2023/02/23 00:07:01;;;;;;;0.60;0.60;;;7.50;72.60;;;7.38;60.14;94631.72;5057667;28;20200;-18
2023/02/23 00:09:34;;;;;;;0.60;0.60;;;7.50;72.60;;;7.35;60.35;94634.69;5057501;28;20283;-18
2023/02/23 00:12:06;;;;;;;0.63;0.63;;;7.50;72.80;;;7.31;60.77;94636.84;5041106;28;20599;-18
2023/02/23 00:14:36;;;;;;;0.70;0.70;;;7.50;73.00;;;7.30;60.55;94631.78;5057674;28;20181;-18
2023/02/23 00:17:09;;;;;;;0.70;0.70;;;7.40;72.90;;;7.27;61.16;94635.56;5057685;28;20187;-19
2023/02/23 00:19:36;;;;;;;0.60;0.60;;;7.40;73.00;;;7.23;61.07;94626.50;5057215;28;20240;-19
2023/02/23 00:22:05;;;;;;;0.60;0.60;;;7.40;73.00;;;7.22;61.31;94630.88;5057140;28;20192;-19
2023/02/23 00:24:32;;;;;;;0.63;0.63;;;7.40;73.20;;;7.19;61.70;94622.63;5057152;28;20192;-19
2023/02/23 00:27:05;;;;;;;0.60;0.60;;;7.40;73.20;;;7.16;61.41;94630.81;5057018;28;20261;-18
2023/02/23 00:29:38;;;;;;;0.60;0.60;;;7.40;73.30;;;7.13;62.23;94625.94;5056659;28;20576;-19
2023/02/23 00:32:05;;;;;;;0.60;0.60;;;7.30;73.50;;;7.09;62.29;94622.84;5039386;28;20189;-19
2023/02/23 00:34:35;;;;;;;0.57;0.57;;;7.30;73.80;;;7.07;62.56;94621.41;5039447;28;20206;-21
2023/02/23 00:37:03;;;;;;;0.60;0.60;;;7.30;74.00;;;7.05;61.85;94619.00;5057008;28;20257;-19
2023/02/23 00:39:30;;;;;;;0.70;0.70;;;7.20;73.90;;;7.05;61.48;94626.81;5056842;28;20212;-19
2023/02/23 00:42:01;;;;;;;0.63;0.63;;;7.20;73.90;;;7.00;61.11;94616.91;5056734;28;20627;-19
2023/02/23 00:44:29;;;;;;;0.60;0.60;;;7.20;73.70;;;7.00;61.11;94626.53;5024380;28;20230;-19
2023/02/23 00:46:56;;;;;;;0.60;0.60;;;7.20;73.60;;;6.95;61.38;94618.44;5057290;28;20607;-19
2023/02/23 00:49:23;;;;;;;0.60;0.60;;;7.10;73.60;;;6.92;61.23;94618.78;5056841;28;20225;-19
2023/02/23 00:51:51;;;;;;;0.70;0.70;;;7.10;73.60;;;6.88;61.35;94624.38;5056760;28;20199;-19
2023/02/23 00:54:20;;;;;;;0.60;0.60;;;7.10;73.80;;;6.87;61.64;94624.53;5057186;28;20661;-21
2023/02/23 00:56:48;;;;;;;0.60;0.60;;;7.00;73.70;;;6.82;61.10;94617.25;5039042;28;20207;-19
2023/02/23 00:59:16;;;;;;;0.60;0.60;;;7.00;73.70;;;6.78;61.49;94618.56;5056670;28;20286;-19
2023/02/23 01:01:44;;;;;;;0.60;0.60;;;7.00;73.80;;;6.75;63.33;94618.94;5038974;28;20188;-19
2023/02/23 01:04:12;;;;;;;0.60;0.60;;;6.90;73.70;;;6.72;63.02;94616.66;5038880;28;20204;-19
2023/02/23 01:06:41;;;;;;;0.60;0.60;;;6.90;73.80;;;6.69;63.24;94620.44;5056653;28;20188;-19
2023/02/23 01:09:13;;;;;;;0.60;0.60;;;6.90;74.10;;;6.67;63.28;94613.78;5056373;28;20192;-19
2023/02/23 01:11:41;;;;;;;0.60;0.60;;;6.90;74.40;;;6.67;62.62;94611.19;5039373;28;20172;-18
2023/02/23 01:14:09;;;;;;;0.70;0.70;;;6.80;74.20;;;6.67;62.70;94611.97;5038961;28;20184;-19
2023/02/23 01:16:37;;;;;;;0.60;0.60;;;6.80;74.20;;;6.63;63.30;94605.50;5038618;28;20192;-22
2023/02/23 01:19:05;;;;;;;0.70;0.70;;;6.80;74.20;;;6.62;62.71;94609.09;5038463;28;20549;-19
2023/02/23 01:21:36;;;;;;;0.80;0.80;;;6.80;74.40;;;6.62;62.15;94608.28;5056001;28;20255;-18
2023/02/23 01:24:04;;;;;;;0.70;0.70;;;6.80;74.30;;;6.62;62.22;94606.47;5038567;28;20184;-19
2023/02/23 01:26:38;;;;;;;0.70;0.70;;;6.80;74.30;;;6.60;62.54;94597.22;5039495;28;20199;-19
2023/02/23 01:29:14;;;;;;;0.68;0.68;;;6.70;74.20;;;6.58;62.56;94600.00;5055958;28;20214;-19
2023/02/23 01:31:45;;;;;;;0.70;0.70;;;6.70;74.30;;;6.54;62.86;94594.34;5056052;28;20194;-18
2023/02/23 01:34:18;;;;;;;0.70;0.70;;;6.70;74.40;;;6.53;62.81;94597.91;5055909;28;20623;-20
2023/02/23 01:36:45;;;;;;;0.60;0.60;;;6.70;74.40;;;6.52;63.02;94595.50;5055694;28;20188;-19
2023/02/23 01:39:16;;;;;;;0.70;0.70;;;6.70;74.40;;;6.51;62.40;94591.28;5054801;28;20196;-19
2023/02/23 01:41:44;;;;;;;0.65;0.65;;;6.70;74.40;;;6.52;62.16;94593.69;5055846;28;20188;-18
2023/02/23 01:44:13;;;;;;;0.70;0.70;;;6.70;74.30;;;6.53;62.33;94597.09;5055649;28;20196;-18
2023/02/23 01:46:44;;;;;;;0.60;0.60;;;6.70;74.50;;;6.47;63.41;94590.81;5056165;28;20168;-18
2023/02/23 01:49:19;;;;;;;0.63;0.63;;;6.70;74.70;;;6.48;63.19;94589.81;5055656;28;20220;-35
2023/02/23 01:51:56;;;;;;;0.60;0.60;;;6.70;74.90;;;6.50;62.76;94598.25;5038302;28;20182;-18
2023/02/23 01:54:35;;;;;;;0.80;0.80;;;6.70;74.80;;;6.47;62.76;94584.75;5038229;28;20223;-19
2023/02/23 01:57:03;;;;;;;0.70;0.70;;;6.60;74.80;;;6.49;62.73;94586.22;5038380;28;20180;-18
2023/02/23 01:59:45;;;;;;;0.70;0.70;;;6.60;74.80;;;6.46;62.81;94586.56;5021531;28;20227;-18
2023/02/23 02:02:15;;;;;;;0.60;0.60;;;6.60;74.80;;;6.46;63.36;94581.38;5037930;28;20666;-19
2023/02/23 02:04:43;;;;;;;0.63;0.63;;;6.60;74.80;;;6.41;63.33;94576.66;5021500;28;20211;-19
2023/02/23 02:07:25;;;;;;;0.50;0.50;;;6.60;74.90;;;6.43;62.48;94579.09;5038201;28;20188;-19
2023/02/23 02:12:52;;;;;;;0.70;0.70;;;6.60;74.70;;;6.36;62.24;94579.00;5023253;28;20215;-19
2023/02/23 02:15:24;;;;;;;0.60;0.60;;;6.50;74.70;;;6.36;62.47;94581.59;5037707;28;20196;-19
2023/02/23 02:18:08;;;;;;;0.60;0.60;;;6.50;74.50;;;6.33;62.30;94574.13;5037634;28;20196;-19
2023/02/23 02:21:11;;;;;;;0.70;0.70;;;6.50;74.60;;;6.29;61.93;94575.47;5037615;28;20235;-19
2023/02/23 02:24:17;;;;;;;0.70;0.70;;;6.40;74.50;;;6.22;62.49;94575.31;5055053;28;20595;-19
2023/02/23 02:27:04;;;;;;;0.60;0.60;;;6.40;74.60;;;6.19;62.81;94575.69;5037881;28;20271;-19
2023/02/23 02:30:18;;;;;;;0.80;0.80;;;6.40;74.70;;;6.18;62.12;94575.88;5055147;28;20500;-21
2023/02/23 02:33:45;;;;;;;0.70;0.70;;;6.30;74.60;;;6.12;62.42;94572.16;5054694;28;20355;-19
2023/02/23 02:36:41;;;;;;;0.60;0.60;;;6.30;74.60;;;6.08;62.39;94565.69;4958459;28;20198;-19
2023/02/23 02:39:35;;;;;;;0.80;0.80;;;6.30;74.60;;;6.05;62.40;94563.41;4970551;28;20230;-19
2023/02/23 02:42:29;;;;;;;0.70;0.70;;;6.20;74.80;;;6.03;63.30;94571.41;5045612;28;20212;-19
2023/02/23 02:45:22;;;;;;;0.70;0.70;;;6.20;75.10;;;6.01;63.68;94564.75;5037817;28;20571;-19
2023/02/23 02:48:29;;;;;;;0.70;0.70;;;6.20;75.20;;;6.00;63.48;94565.72;5037295;28;20631;-18
2023/02/23 02:51:16;;;;;;;0.70;0.70;;;6.20;75.30;;;6.00;63.65;94565.72;5037903;28;20188;-19
2023/02/23 02:54:05;;;;;;;0.70;0.70;;;6.10;75.30;;;5.99;63.40;94566.69;5059564;28;20172;-19
2023/02/23 02:56:39;;;;;;;0.70;0.70;;;6.10;75.40;;;5.99;63.33;94567.50;5041248;28;20192;-19
2023/02/23 04:19:57;;;;;;;0.70;0.70;;;7.00;76.90;;;7.02;63.71;94586.25;5039869;28;20751;-19
2023/02/23 04:22:24;;;;;;;0.60;0.60;;;7.10;76.90;;;7.07;64.21;94580.53;5057123;28;20196;-19
2023/02/23 04:24:51;;;;;;;0.60;0.60;;;7.10;76.90;;;7.12;63.56;94575.56;5057451;28;20533;-19
2023/02/23 04:27:19;;;;;;;0.60;0.60;;;7.20;76.90;;;7.19;63.52;94575.69;5057415;28;20253;-18
2023/02/23 04:29:46;;;;;;;0.60;0.60;;;7.20;76.80;;;7.26;63.35;94581.78;5057301;28;20203;-19
2023/02/23 04:32:17;;;;;;;0.70;0.70;;;7.30;76.80;;;7.29;63.24;94578.81;5057028;28;20196;-19
2023/02/23 04:34:45;;;;;;;0.70;0.70;;;7.40;76.80;;;7.33;63.54;94572.25;5057061;28;20184;-19
2023/02/23 04:37:12;;;;;;;0.63;0.63;;;7.40;76.70;;;7.41;63.22;94580.97;5039671;28;20192;-19
2023/02/23 04:39:41;;;;;;;0.60;0.60;;;7.50;76.70;;;7.43;62.88;94571.19;5057306;28;20572;-19
2023/02/23 04:42:09;;;;;;;0.60;0.60;;;7.50;76.70;;;7.46;63.05;94579.47;5056929;28;20214;-19
2023/02/23 04:44:36;;;;;;;0.70;0.70;;;7.60;76.70;;;7.49;63.20;94576.47;5057083;28;20257;-19
2023/02/23 04:47:03;;;;;;;0.60;0.60;;;7.60;76.60;;;7.52;62.58;94573.50;5039527;28;20195;-19
2023/02/23 04:49:30;;;;;;;0.60;0.60;;;7.70;76.60;;;7.55;62.88;94569.72;5056742;28;20226;-19
2023/02/23 04:51:57;;;;;;;0.60;0.60;;;7.70;76.50;;;7.58;63.42;94566.78;5056571;28;20196;-19
2023/02/23 04:54:24;;;;;;;0.60;0.60;;;7.70;76.50;;;7.62;63.00;94572.44;5057224;28;20193;-19
2023/02/23 04:56:51;;;;;;;0.60;0.60;;;7.80;76.40;;;7.66;62.59;94565.84;5056615;28;20215;-19
2023/02/23 04:59:18;;;;;;;0.70;0.70;;;7.80;76.40;;;7.68;62.69;94561.25;5056828;28;20200;-20
2023/02/23 05:01:45;;;;;;;0.70;0.70;;;7.80;76.30;;;7.68;62.52;94553.44;5056288;28;20216;-19
2023/02/23 05:04:12;;;;;;;0.60;0.60;;;7.80;76.20;;;7.68;62.58;94559.44;5056729;28;20188;-19
2023/02/23 05:06:41;;;;;;;0.60;0.60;;;7.90;76.20;;;7.69;62.78;94563.69;5056471;28;20192;-19
2023/02/23 05:09:09;;;;;;;0.60;0.60;;;7.90;76.10;;;7.73;62.51;94565.94;5056405;28;20188;-19
2023/02/23 05:11:36;;;;;;;0.60;0.60;;;7.90;76.10;;;7.71;62.69;94554.88;5056319;28;20538;-19
2023/02/23 05:14:03;;;;;;;0.50;0.50;;;7.90;76.00;;;7.68;62.71;94556.84;5055615;28;20295;-19
2023/02/23 05:16:31;;;;;;;0.60;0.60;;;7.90;76.00;;;7.69;62.77;94553.25;5056240;28;20635;-19
2023/02/23 05:18:58;;;;;;;0.70;0.70;;;7.90;75.90;;;7.69;62.68;94561.06;5038644;28;20663;-19
2023/02/23 05:21:25;;;;;;;0.60;0.60;;;7.90;75.90;;;7.68;62.47;94553.44;5056341;28;20215;-21
2023/02/23 05:23:52;;;;;;;0.60;0.60;;;7.90;75.90;;;7.71;62.64;94560.88;5056076;28;20188;-19
2023/02/23 05:26:19;;;;;;;0.60;0.60;;;7.90;75.90;;;7.70;62.49;94559.25;5056368;28;20192;-19
2023/02/23 05:28:46;;;;;;;0.60;0.60;;;7.90;75.90;;;7.73;62.56;94552.91;5055903;28;20628;-19
2023/02/23 05:31:13;;;;;;;0.65;0.65;;;7.90;75.90;;;7.74;62.71;94560.53;5056230;28;20200;-19
2023/02/23 05:33:44;;;;;;;0.60;0.60;;;8.00;75.90;;;7.76;62.61;94552.50;5055721;28;20284;-19
2023/02/23 05:36:18;;;;;;;0.60;0.60;;;8.00;75.90;;;7.77;62.21;94556.75;5056438;28;20188;-19
2023/02/23 05:38:46;;;;;;;0.70;0.70;;;8.00;75.90;;;7.81;62.44;94556.19;5038825;28;20184;-19
2023/02/23 05:41:17;;;;;;;0.60;0.60;;;8.00;75.80;;;7.79;62.46;94550.34;5055672;28;20237;-19
2023/02/23 05:43:45;;;;;;;0.68;0.68;;;8.00;75.80;;;7.81;62.52;94556.19;5055909;28;20176;-19
2023/02/23 05:46:18;;;;;;;0.60;0.60;;;8.00;75.80;;;7.82;62.68;94554.38;5055890;28;20196;-18
2023/02/23 05:48:45;;;;;;;0.60;0.60;;;8.00;75.80;;;7.81;62.46;94555.38;5038673;28;20242;-19
2023/02/23 05:51:14;;;;;;;0.60;0.60;;;8.00;75.80;;;7.78;62.63;94555.75;5055600;28;20249;-19
2023/02/23 05:53:43;;;;;;;0.80;0.80;;;8.00;75.70;;;7.80;62.86;94559.81;5054446;28;20214;-19
2023/02/23 05:56:19;;;;;;;0.60;0.60;;;8.10;75.80;;;7.79;62.31;94562.59;5055475;28;20199;-19
2023/02/23 05:58:55;;;;;;;0.60;0.60;;;8.00;75.70;;;7.77;62.46;94560.16;5055595;28;20187;-19
2023/02/23 06:01:22;;;;;;;0.65;0.65;;;8.00;75.70;;;7.78;62.64;94561.78;5055952;28;20210;-19
2023/02/23 06:03:50;;;;;;;0.70;0.70;;;8.00;75.70;;;7.78;62.55;94569.59;5055224;28;20199;-19
2023/02/23 06:06:18;;;;;;;0.60;0.60;;;8.00;75.70;;;7.79;62.63;94566.00;5055588;28;20191;-19
2023/02/23 06:08:45;;;;;;;0.60;0.60;;;8.10;75.80;;;7.75;62.43;94567.38;5055283;28;20192;-20
2023/02/23 06:11:12;;;;;;;0.60;0.60;;;8.10;75.80;;;7.78;62.30;94572.22;5037873;28;20295;-19
2023/02/23 06:13:40;;;;;;;0.60;0.60;;;8.00;75.70;;;7.81;62.36;94571.03;5037723;28;20192;-18
2023/02/23 06:16:07;;;;;;;0.60;0.60;;;8.00;75.70;;;7.83;62.31;94576.91;5055423;28;20188;-19
2023/02/23 06:18:35;;;;;;;0.50;0.50;;;8.00;75.70;;;7.85;62.24;94578.34;5055385;28;20227;-19
2023/02/23 06:21:03;;;;;;;0.68;0.68;;;8.10;75.80;;;7.87;62.36;94578.13;5055030;28;20220;-19
2023/02/23 06:23:31;;;;;;;0.60;0.60;;;8.00;75.70;;;7.92;62.10;94575.81;5055094;28;20188;-19
2023/02/23 06:25:58;;;;;;;0.60;0.60;;;8.10;75.80;;;7.93;62.39;94574.78;5054778;28;20192;-19
2023/02/23 06:28:27;;;;;;;0.60;0.60;;;8.10;75.80;;;7.98;62.20;94574.25;5054987;28;20196;-19
2023/02/23 06:30:55;;;;;;;0.70;0.70;;;8.20;75.90;;;8.02;62.15;94580.75;5054951;28;20279;-19
2023/02/23 06:33:23;;;;;;;0.60;0.60;;;8.20;75.80;;;8.04;62.31;94580.53;5055124;28;20210;-19
2023/02/23 06:35:51;;;;;;;0.70;0.70;;;8.20;75.80;;;8.07;62.20;94573.16;5021204;28;20225;-19
2023/02/23 06:38:19;;;;;;;0.60;0.60;;;8.20;75.80;;;8.09;62.04;94580.81;5054876;28;20206;-19
2023/02/23 06:40:46;;;;;;;0.60;0.60;;;8.30;75.90;;;8.14;61.94;94581.88;5054980;28;20218;-19
2023/02/23 06:43:13;;;;;;;0.55;0.55;;;8.30;75.80;;;8.18;62.14;94585.72;5054648;28;20632;-19
2023/02/23 06:45:40;;;;;;;0.60;0.60;;;8.30;75.80;;;8.21;62.07;94583.75;5055345;28;20219;-19
2023/02/23 06:48:07;;;;;;;0.70;0.70;;;8.30;75.80;;;8.24;61.96;94580.75;5054995;28;20194;-20
2023/02/23 06:50:34;;;;;;;0.70;0.70;;;8.40;75.70;;;8.26;62.06;94589.22;5054776;28;20188;-19
2023/02/23 06:53:02;;;;;;;0.60;0.60;;;8.40;75.80;;;8.29;61.87;94587.03;5054581;28;20196;-19
2023/02/23 06:55:29;;;;;;;0.60;0.60;;;8.50;75.70;;;8.31;61.92;94590.28;5054733;28;20631;-19
2023/02/23 06:57:56;;;;;;;0.73;0.73;;;8.50;75.70;;;8.35;62.22;94590.72;5054890;28;20188;-19
2023/02/23 07:00:23;;;;;;;0.70;0.70;;;8.50;75.80;;;8.38;61.99;94584.31;5054906;28;20181;-18
2023/02/23 07:02:50;;;;;;;0.60;0.60;;;8.50;75.70;;;8.40;61.98;94598.81;5054459;28;20525;-19
2023/02/23 07:05:17;;;;;;;0.60;0.60;;;8.60;75.70;;;8.45;62.10;94593.84;5054922;28;20183;-19
2023/02/23 07:07:44;;;;;;;0.60;0.60;;;8.60;75.70;;;8.49;61.92;94594.31;5054528;28;20589;-20
2023/02/23 07:10:12;;;;;;;0.60;0.60;;;8.70;75.80;;;8.52;62.10;94593.13;5054878;28;20202;-20
2023/02/23 07:12:39;;;;;;;0.60;0.60;;;8.70;75.80;;;8.59;62.00;94599.22;5054382;28;20200;-19
2023/02/23 07:15:06;;;;;;;0.60;0.60;;;8.80;75.80;;;8.62;62.04;94598.84;5054515;28;20196;-19
2023/02/23 07:17:33;;;;;;;0.60;0.60;;;8.80;75.80;;;8.64;62.27;94589.00;5054796;28;20191;-19
2023/02/23 07:20:01;;;;;;;0.70;0.70;;;8.80;75.80;;;8.70;61.97;94592.69;5054306;28;20695;-19
2023/02/23 07:22:29;;;;;;;0.80;0.80;;;8.90;75.80;;;8.75;62.27;94592.91;5054383;28;20216;-19
2023/02/23 07:24:56;;;;;;;0.70;0.70;;;9.00;75.80;;;8.78;61.83;94585.50;5054303;28;20234;-19
2023/02/23 07:27:24;;;;;;;0.65;0.65;;;9.00;75.70;;;8.83;62.04;94594.63;5054415;28;20245;-19
2023/02/23 07:29:51;;;;;;;0.60;0.60;;;9.10;75.70;;;8.90;61.82;94598.91;5054664;28;20204;-18
2023/02/23 07:32:19;;;;;;;0.60;0.60;;;9.10;75.70;;;8.92;61.91;94596.91;5054350;28;20580;-19
2023/02/23 07:34:46;;;;;;;0.70;0.70;;;9.10;75.70;;;9.02;61.95;94603.59;5054198;28;20195;-19
2023/02/23 07:37:14;;;;;;;0.60;0.60;;;9.20;75.70;;;9.07;61.82;94602.03;5055479;28;20207;-19
2023/02/23 07:39:41;;;;;;;0.60;0.60;;;9.30;75.80;;;9.12;61.86;94598.88;5040746;28;20196;-19
2023/02/23 07:42:08;;;;;;;0.70;0.70;;;9.30;75.70;;;9.15;61.84;94595.84;5040910;28;20215;-19
2023/02/23 07:44:36;;;;;;;0.60;0.60;;;9.40;75.70;;;9.20;61.94;94606.53;5057875;28;20191;-19
2023/02/23 07:47:05;;;;;;;0.60;0.60;;;9.50;75.60;;;9.22;62.06;94609.78;5058231;28;20217;-19
2023/02/23 07:49:33;;;;;;;0.70;0.70;;;9.50;75.40;;;9.25;62.12;94604.19;5058198;28;20188;-19
2023/02/23 07:52:00;;;;;;;0.65;0.65;;;9.60;75.50;;;9.31;62.04;94599.19;5057882;28;20259;-19
2023/02/23 07:54:27;;;;;;;0.70;0.70;;;9.60;75.50;;;9.38;62.14;94592.19;5057689;28;20534;-21
2023/02/23 07:56:54;;;;;;;0.60;0.60;;;9.70;75.60;;;9.47;61.98;94600.69;5058065;28;20556;-20
2023/02/23 07:59:21;;;;;;;0.60;0.60;;;9.80;75.70;;;9.50;61.72;94608.97;5057711;28;20646;-19
2023/02/23 08:01:50;;;;;;;0.63;0.63;;;9.80;75.60;;;9.55;61.72;94609.19;5057616;28;20226;-19
2023/02/23 08:04:18;;;;;;;0.70;0.70;;;9.90;75.70;;;9.60;61.50;94611.25;5057705;28;20199;-19
2023/02/23 08:06:44;;;;;;;0.70;0.70;;;10.00;74.60;;;9.62;61.53;94614.47;5057597;28;20279;-19
2023/02/23 08:09:11;;;;;;;0.50;0.50;;;10.00;74.50;;;9.65;61.57;94608.84;5057983;28;20199;-19
2023/02/23 08:11:39;;;;;;;0.60;0.60;;;10.10;74.60;;;9.66;61.42;94607.84;5039977;28;20203;-19
2023/02/23 08:14:06;;;;;;;0.70;0.70;;;10.10;74.50;;;9.68;61.44;94615.50;5057470;28;20245;-19
2023/02/23 08:16:33;;;;;;;0.60;0.60;;;10.10;74.20;;;9.69;61.64;94615.34;5057409;28;20217;-18
2023/02/23 08:19:01;;;;;;;0.60;0.60;;;10.10;74.20;;;9.76;61.64;94615.34;5057209;28;20326;-19
2023/02/23 08:21:29;;;;;;;0.77;0.77;;;10.20;74.40;;;9.85;61.68;94621.22;5039720;28;20302;-19
2023/02/23 08:23:57;;;;;;;0.60;0.60;;;10.20;74.40;;;9.88;61.52;94613.00;5057122;28;20188;-19
2023/02/23 08:26:25;;;;;;;0.60;0.60;;;10.30;74.20;;;9.87;61.41;94617.41;5057615;28;20197;-19
2023/02/23 08:28:53;;;;;;;0.60;0.60;;;10.30;74.00;;;9.92;61.30;94622.06;5057180;28;20192;-19
2023/02/23 08:31:22;;;;;;;0.60;0.60;;;10.30;74.00;;;9.96;61.09;94614.63;5057700;28;20223;-19
2023/02/23 08:33:51;;;;;;;0.70;0.70;;;10.40;73.90;;;9.98;61.02;94616.06;5056939;28;20210;-19
2023/02/23 08:36:19;;;;;;;0.60;0.60;;;10.40;73.90;;;10.02;61.21;94617.28;5057017;28;20195;-18
2023/02/23 08:38:47;;;;;;;0.60;0.60;;;10.40;73.90;;;10.05;61.31;94619.50;5056989;28;20191;-19
2023/02/23 08:41:14;;;;;;;0.60;0.60;;;10.50;73.90;;;10.07;61.32;94614.06;5057444;28;20203;-18
2023/02/23 08:43:42;;;;;;;0.70;0.70;;;10.50;73.80;;;10.13;61.04;94617.72;5056752;28;20248;-19
2023/02/23 08:46:10;;;;;;;0.60;0.60;;;10.50;73.90;;;10.18;61.19;94616.13;5056894;28;20203;-19
2023/02/23 08:48:39;;;;;;;0.60;0.60;;;10.60;73.90;;;10.24;61.06;94622.38;5056233;28;20200;-19
2023/02/23 08:51:07;;;;;;;0.70;0.70;;;10.70;73.90;;;10.30;61.24;94620.81;5056707;28;20219;-19
2023/02/23 08:53:35;;;;;;;0.60;0.60;;;10.70;73.90;;;10.37;60.94;94626.91;5056553;28;20198;-19
2023/02/23 08:56:05;;;;;;;0.70;0.70;;;10.70;73.80;;;10.41;60.89;94617.63;5056675;28;20196;-19
2023/02/23 08:58:34;;;;;;;0.70;0.70;;;10.80;73.90;;;10.49;60.59;94622.69;5039692;28;20203;-18
2023/02/23 09:01:02;;;;;;;0.70;0.70;;;10.80;73.80;;;10.57;60.64;94621.72;5056845;28;20615;-19
2023/02/23 09:03:30;;;;;;;0.60;0.60;;;10.90;73.80;;;10.62;60.46;94618.50;5056577;28;20294;-19
2023/02/23 09:06:06;;;;;;;0.60;0.60;;;11.00;73.70;;;10.64;60.47;94612.03;5056756;28;20198;-19
2023/02/23 09:08:34;;;;;;;0.60;0.60;;;11.00;73.40;;;10.70;60.31;94613.06;5056590;28;20270;-19
2023/02/23 09:11:00;;;;;;;0.60;0.60;;;11.10;73.40;;;10.72;59.75;94613.69;5056404;28;20198;-19
2023/02/23 09:13:27;;;;;;;0.50;0.50;;;11.10;73.10;;;10.68;59.65;94609.81;5056121;28;20668;-19
2023/02/23 09:15:54;;;;;;;0.60;0.60;;;11.10;72.90;;;10.69;59.81;94603.56;5056317;28;20199;-19
2023/02/23 09:18:22;;;;;;;0.90;0.90;;;11.20;72.90;;;10.74;59.91;94614.25;5056222;28;20210;-19
2023/02/23 09:20:50;;;;;;;0.80;0.80;;;11.20;72.80;;;10.72;59.66;94600.56;5038910;28;20246;-19
2023/02/23 09:23:17;;;;;;;0.65;0.65;;;11.20;72.80;;;10.77;59.86;94610.47;5056066;28;20220;-19
2023/02/23 09:25:45;;;;;;;0.65;0.65;;;11.30;72.80;;;10.82;60.02;94615.91;5056180;28;20203;-19
2023/02/23 09:28:17;;;;;;;0.60;0.60;;;11.30;72.80;;;10.81;59.83;94620.31;5056320;28;20222;-19
2023/02/23 09:30:46;;;;;;;0.50;0.50;;;11.40;72.80;;;10.84;59.94;94612.06;5056294;28;20217;-19
2023/02/23 09:33:13;;;;;;;0.70;0.70;;;11.40;72.80;;;10.86;59.60;94623.19;5055994;28;20207;-19
2023/02/23 09:35:40;;;;;;;0.65;0.65;;;11.40;72.70;;;10.96;60.04;94622.78;5055795;28;20202;-18
2023/02/23 09:38:08;;;;;;;0.60;0.60;;;11.50;72.80;;;11.08;60.09;94624.81;5055872;28;20187;-19
2023/02/23 09:40:53;;;;;;;0.60;0.60;;;11.60;72.90;;;11.21;59.70;94617.72;5038245;28;20207;-19
2023/02/23 09:43:41;;;;;;;0.63;0.63;;;11.60;72.80;;;11.36;59.67;94625.41;5056006;28;20207;-19
2023/02/23 09:46:48;;;;;;;0.60;0.60;;;11.80;72.80;;;11.46;59.35;94624.16;5039014;28;20237;-19
2023/02/23 09:49:21;;;;;;;0.60;0.60;;;11.90;72.60;;;11.54;59.12;94619.50;5055721;28;20183;-19
2023/02/23 09:51:56;;;;;;;0.63;0.63;;;11.90;72.40;;;11.63;58.52;94625.38;5055910;28;20176;-20
2023/02/23 09:54:28;;;;;;;0.68;0.68;;;12.00;72.20;;;11.74;58.46;94625.72;5055711;28;20189;-19
2023/02/23 09:56:57;;;;;;;0.60;0.60;;;12.10;72.10;;;11.81;58.27;94622.06;5056093;28;20179;-19
2023/02/23 09:59:25;;;;;;;0.60;0.60;;;12.10;72.10;;;11.88;58.42;94623.88;5055727;28;20507;-19
2023/02/23 10:02:24;;;;;;;0.60;0.60;;;12.20;72.10;;;11.93;57.92;94624.88;5055241;28;20215;-18
2023/02/23 10:05:03;;;;;;;0.60;0.60;;;12.30;71.90;;;11.95;58.04;94624.66;5055603;28;20180;-19
2023/02/23 10:07:54;;;;;;;0.63;0.63;;;12.40;71.80;;;11.99;57.94;94621.44;5038363;28;20280;-19
2023/02/23 10:10:43;;;;;;;0.70;0.70;;;12.40;71.70;;;12.09;57.92;94628.88;5038665;28;20211;-19
2023/02/23 10:13:44;;;;;;;0.60;0.60;;;12.50;71.70;;;12.16;57.62;94619.16;5055557;28;20289;-19
2023/02/23 10:16:21;;;;;;;0.60;0.60;;;12.60;71.60;;;12.23;57.72;94621.78;5037764;28;20202;-22
2023/02/23 10:19:32;;;;;;;0.60;0.60;;;12.70;71.50;;;12.35;57.57;94627.16;5055315;28;20179;-19
2023/02/23 10:22:05;;;;;;;0.60;0.60;;;12.70;71.40;;;12.43;57.53;94621.66;5055022;28;20207;-19
2023/02/23 10:24:41;;;;;;;0.60;0.60;;;12.90;71.50;;;12.56;57.65;94614.72;5054998;28;20167;-19
2023/02/23 10:27:18;;;;;;;0.70;0.70;;;12.90;71.30;;;12.65;56.47;94613.44;5038311;28;20274;-19
2023/02/23 10:29:53;;;;;;;0.68;0.68;;;13.10;71.00;;;12.73;56.50;94607.94;5038219;28;20180;-19
2023/02/23 10:32:40;;;;;;;0.70;0.70;;;13.10;70.80;;;12.85;56.28;94615.16;5037701;28;20256;-20
2023/02/23 10:35:18;;;;;;;0.60;0.60;;;13.20;70.70;;;12.96;56.18;94614.44;5037520;28;20187;-21
2023/02/23 10:37:46;;;;;;;0.70;0.70;;;13.30;70.60;;;13.06;55.73;94606.91;5055221;28;20635;-19
2023/02/23 10:40:23;;;;;;;0.68;0.68;;;13.40;70.50;;;13.17;55.72;94605.41;5054866;28;20623;-19
2023/02/23 10:42:51;;;;;;;0.80;0.80;;;13.50;70.10;;;13.21;55.75;94603.94;5038354;28;20225;-19
2023/02/23 10:45:24;;;;;;;0.70;0.70;;;13.60;70.20;;;13.28;55.43;94606.50;5054679;28;20183;-19
2023/02/23 10:48:00;;;;;;;0.60;0.60;;;13.70;70.10;;;13.34;54.92;94602.19;5037506;28;20171;-20
2023/02/23 10:50:29;;;;;;;0.50;0.50;;;13.80;69.90;;;13.42;55.22;94602.75;5038041;28;20179;-19
2023/02/23 10:53:11;;;;;;;0.63;0.63;;;13.90;70.00;;;13.53;55.46;94597.81;5037969;28;20214;-19
2023/02/23 10:55:38;;;;;;;0.70;0.70;;;14.00;70.00;;;13.61;54.70;94598.31;5037255;28;20213;-19
2023/02/23 10:58:15;;;;;;;0.50;0.50;;;14.00;69.80;;;13.76;55.17;94602.44;5037308;28;20203;-19
2023/02/23 11:01:01;;;;;;;0.70;0.70;;;14.20;69.90;;;13.87;55.04;94599.06;5054978;28;20198;-19
2023/02/23 11:03:32;;;;;;;0.60;0.60;;;14.30;69.70;;;13.99;54.33;94590.41;5054797;28;20639;-19
2023/02/23 11:05:59;;;;;;;0.70;0.70;;;14.40;69.70;;;14.11;54.07;94601.84;5037237;28;20180;-19
2023/02/23 11:08:32;;;;;;;0.57;0.57;;;14.50;69.00;;;14.19;53.64;94592.81;5054623;28;20191;-19
2023/02/23 11:11:14;;;;;;;0.50;0.50;;;14.60;68.80;;;14.29;53.73;94585.16;5054898;28;20179;-19
2023/02/23 11:13:49;;;;;;;0.70;0.70;;;14.70;68.60;;;14.36;52.66;94593.81;5058779;28;20651;-19
2023/02/23 11:16:22;;;;;;;0.55;0.55;;;14.90;68.60;;;14.43;53.20;94582.34;5058845;28;20523;-19
2023/02/23 11:18:55;;;;;;;0.50;0.50;;;14.90;68.40;;;14.53;52.86;94577.34;5041484;28;20183;-19
2023/02/23 11:21:37;;;;;;;0.50;0.50;;;15.00;68.10;;;14.58;52.61;94570.34;5059023;28;20256;-19
2023/02/23 11:24:30;;;;;;;0.50;0.50;;;15.20;68.10;;;14.73;53.45;94577.09;5041510;28;20211;-19
2023/02/23 11:27:02;;;;;;;0.60;0.60;;;15.20;68.40;;;14.81;52.24;94578.63;5058688;28;20591;-19
2023/02/23 11:29:36;;;;;;;0.50;0.50;;;15.30;67.80;;;14.92;52.15;94566.47;5041930;28;20254;-19
2023/02/23 11:32:29;;;;;;;0.70;0.70;;;15.40;67.60;;;15.00;51.85;94561.66;5040955;28;20218;-19
2023/02/23 11:35:26;;;;;;;0.50;0.50;;;15.50;67.70;;;15.08;51.83;94565.00;5048546;28;20217;-19
2023/02/23 11:37:54;;;;;;;0.60;0.60;;;15.60;67.60;;;15.11;52.29;94561.88;5041150;28;20186;-19
2023/02/23 11:40:33;;;;;;;0.60;0.60;;;15.70;67.50;;;15.18;52.34;94567.88;5040763;28;20199;-19
2023/02/23 11:43:16;;;;;;;0.60;0.60;;;15.70;67.30;;;15.15;51.44;94549.84;5041089;28;20214;-19
2023/02/23 11:45:48;;;;;;;0.50;0.50;;;15.80;67.20;;;15.16;51.47;94560.19;5057899;28;20216;-19
2023/02/23 11:48:25;;;;;;;0.50;0.50;;;15.80;66.90;;;15.15;51.68;94552.50;5058187;28;20599;-19
2023/02/23 11:50:53;;;;;;;0.50;0.50;;;15.80;66.80;;;15.18;51.69;94560.75;5058250;28;20175;-18
2023/02/23 11:53:31;;;;;;;0.60;0.60;;;15.80;66.80;;;15.19;51.69;94557.06;5057878;28;20195;-19
2023/02/23 11:56:06;;;;;;;0.50;0.50;;;15.80;66.80;;;15.17;51.35;94559.16;5057819;28;20183;-19
2023/02/23 11:58:38;;;;;;;0.50;0.50;;;15.80;66.70;;;15.19;51.50;94551.78;5058105;28;20230;-19
2023/02/23 12:01:13;;;;;;;0.50;0.50;;;15.80;66.60;;;15.20;51.49;94549.97;5057928;28;20722;-19
2023/02/23 12:03:49;;;;;;;0.50;0.50;;;15.80;66.50;;;15.24;50.81;94553.75;5040578;28;20195;-19
2023/02/23 12:06:35;;;;;;;0.50;0.50;;;15.80;66.40;;;15.28;51.36;94554.91;5040229;28;20176;-19
2023/02/23 12:09:22;;;;;;;0.50;0.50;;;15.80;66.60;;;15.30;51.04;94546.75;5041151;28;20175;-19
2023/02/23 12:12:06;;;;;;;0.50;0.50;;;15.80;66.50;;;15.31;51.20;94537.78;5057633;28;20190;-19
2023/02/23 12:14:51;;;;;;;0.70;0.70;;;15.80;66.60;;;15.34;51.08;94543.41;5040724;28;20262;-19